createdAt,value
2023-02-13T00:01:32.428Z,3.60
2023-02-13T00:04:01.733Z,3.60
2023-02-13T00:06:30.259Z,3.60
2023-02-13T00:08:58.813Z,3.60
2023-02-13T00:11:27.322Z,3.50
2023-02-13T00:13:55.435Z,3.50
2023-02-13T00:16:23.945Z,3.50
2023-02-13T00:18:53.354Z,3.60
2023-02-13T00:21:21.407Z,3.50
2023-02-13T00:23:50.544Z,3.50
2023-02-13T00:26:19.596Z,3.50
2023-02-13T00:28:49.171Z,3.50
2023-02-13T00:31:20.902Z,3.40
2023-02-13T00:33:50.872Z,3.40
2023-02-13T00:36:25.135Z,3.40
2023-02-13T00:38:56.001Z,3.40
2023-02-13T00:41:25.360Z,3.40
2023-02-13T00:43:54.239Z,3.40
2023-02-13T00:46:22.439Z,3.40
2023-02-13T00:48:51.188Z,3.30
2023-02-13T00:51:21.359Z,3.20
2023-02-13T00:53:49.771Z,3.10
2023-02-13T00:56:17.985Z,3.20
2023-02-13T00:58:46.788Z,3.20
2023-02-13T01:01:15.024Z,3.20
2023-02-13T01:03:44.336Z,3.20
2023-02-13T01:06:14.318Z,3.20
2023-02-13T01:08:45.153Z,3.20
2023-02-13T01:11:13.585Z,3.20
2023-02-13T01:13:42.653Z,3.20
2023-02-13T01:16:13.279Z,3.20
2023-02-13T01:18:41.497Z,3.10
2023-02-13T01:21:19.005Z,3.10
2023-02-13T01:23:49.140Z,3.10
2023-02-13T01:26:25.612Z,3.00
2023-02-13T01:28:55.620Z,2.90
2023-02-13T01:31:26.804Z,2.90
2023-02-13T01:33:58.977Z,2.90
2023-02-13T01:36:28.590Z,2.90
2023-02-13T01:39:00.345Z,2.90
2023-02-13T01:41:30.093Z,2.80
2023-02-13T01:44:01.107Z,2.80
2023-02-13T01:46:38.926Z,2.80
2023-02-13T01:49:14.498Z,2.70
2023-02-13T01:51:45.452Z,2.70
2023-02-13T01:54:18.984Z,2.50
2023-02-13T01:56:55.634Z,2.50
2023-02-13T01:59:29.682Z,2.40
2023-02-13T02:02:01.430Z,2.40
2023-02-13T02:04:34.146Z,2.30
2023-02-13T02:07:13.293Z,2.30
2023-02-13T02:09:47.320Z,2.20
2023-02-13T02:12:25.480Z,2.30
2023-02-13T02:14:56.794Z,2.30
2023-02-13T02:17:28.676Z,2.30
2023-02-13T02:20:16.408Z,2.40
2023-02-13T02:23:42.596Z,2.30
2023-02-13T02:26:46.882Z,2.30
2023-02-13T02:29:57.156Z,2.20
2023-02-13T02:32:50.594Z,2.20
2023-02-13T02:35:33.332Z,2.20
2023-02-13T02:38:28.027Z,2.10
2023-02-13T02:41:11.671Z,2.00
2023-02-13T02:43:56.387Z,2.00
2023-02-13T02:46:34.417Z,1.90
2023-02-13T02:49:25.712Z,1.90
2023-02-13T02:52:05.804Z,1.80
2023-02-13T02:54:59.110Z,1.80
2023-02-13T02:57:48.119Z,1.60
2023-02-13T03:00:45.373Z,1.70
2023-02-13T03:03:37.675Z,1.70
2023-02-13T03:06:17.728Z,1.80
2023-02-13T03:09:24.349Z,1.70
2023-02-13T03:12:14.444Z,1.70
2023-02-13T03:14:46.359Z,1.60
2023-02-13T03:17:37.264Z,1.40
2023-02-13T03:20:41.554Z,1.50
2023-02-13T03:23:18.376Z,1.50
2023-02-13T03:26:18.316Z,1.60
2023-02-13T03:29:17.178Z,1.50
2023-02-13T03:32:01.735Z,1.40
2023-02-13T03:34:58.424Z,1.40
2023-02-13T03:37:53.564Z,1.40
2023-02-13T03:40:32.727Z,1.30
2023-02-13T03:43:13.300Z,1.30
2023-02-13T03:45:57.346Z,1.30
2023-02-13T03:48:50.323Z,1.30
2023-02-13T03:51:26.613Z,1.40
2023-02-13T03:54:02.101Z,1.30
2023-02-13T03:56:53.851Z,1.30
2023-02-13T03:59:28.419Z,1.30
2023-02-13T04:02:08.014Z,1.20
2023-02-13T04:04:48.183Z,1.10
2023-02-13T04:07:30.601Z,1.20
2023-02-13T04:10:03.427Z,1.20
2023-02-13T04:12:43.938Z,1.20
2023-02-13T04:15:19.735Z,1.10
2023-02-13T04:17:55.292Z,1.10
2023-02-13T04:20:23.479Z,1.00
2023-02-13T04:22:51.719Z,1.00
2023-02-13T04:25:21.900Z,1.00
2023-02-13T04:27:51.305Z,1.00
2023-02-13T04:30:24.145Z,1.00
2023-02-13T04:32:53.400Z,1.00
2023-02-13T04:35:21.765Z,1.00
2023-02-13T04:37:50.640Z,1.20
2023-02-13T04:40:20.397Z,1.10
2023-02-13T04:42:49.752Z,1.50
2023-02-13T04:45:19.728Z,1.10
2023-02-13T04:47:52.696Z,1.10
2023-02-13T04:50:22.991Z,1.10
2023-02-13T04:52:55.309Z,1.10
2023-02-13T04:55:25.047Z,1.10
2023-02-13T04:57:54.454Z,1.00
2023-02-13T05:00:27.998Z,1.00
2023-02-13T05:03:05.049Z,1.00
2023-02-13T05:05:33.377Z,0.90
2023-02-13T05:08:02.188Z,0.90
2023-02-13T05:10:31.514Z,0.90
2023-02-13T05:13:00.159Z,0.90
2023-02-13T05:15:30.010Z,0.90
2023-02-13T05:17:58.631Z,1.00
2023-02-13T05:20:28.509Z,1.00
2023-02-13T05:23:15.508Z,1.00
2023-02-13T05:25:43.849Z,0.90
2023-02-13T05:28:26.127Z,0.90
2023-02-13T05:30:58.328Z,0.80
2023-02-13T05:33:27.430Z,0.80
2023-02-13T05:35:55.567Z,0.70
2023-02-13T05:38:24.437Z,0.80
2023-02-13T05:40:52.820Z,0.80
2023-02-13T05:43:21.227Z,0.80
2023-02-13T05:45:49.458Z,0.70
2023-02-13T05:48:18.879Z,0.80
2023-02-13T05:50:48.495Z,0.80
2023-02-13T05:53:17.389Z,0.80
2023-02-13T05:55:45.645Z,0.80
2023-02-13T05:58:14.634Z,0.80
2023-02-13T06:00:42.708Z,0.80
2023-02-13T06:03:11.142Z,0.70
2023-02-13T06:05:40.913Z,0.70
2023-02-13T06:08:09.032Z,0.70
2023-02-13T06:10:37.480Z,0.70
2023-02-13T06:13:06.440Z,0.60
2023-02-13T06:15:34.729Z,0.70
2023-02-13T06:18:03.071Z,0.70
2023-02-13T06:20:31.823Z,0.60
2023-02-13T06:23:03.745Z,0.60
2023-02-13T06:25:32.271Z,0.60
2023-02-13T06:28:00.201Z,0.60
2023-02-13T06:30:28.535Z,0.60
2023-02-13T06:32:57.941Z,0.60
2023-02-13T06:35:28.000Z,0.70
2023-02-13T06:37:56.211Z,0.60
2023-02-13T06:40:27.385Z,0.60
2023-02-13T06:42:56.607Z,0.70
2023-02-13T06:45:28.816Z,0.70
2023-02-13T06:47:56.936Z,0.70
2023-02-13T06:50:25.118Z,0.70
2023-02-13T06:52:54.504Z,0.70
2023-02-13T06:55:24.907Z,0.70
2023-02-13T06:58:12.398Z,0.70
2023-02-13T07:00:41.726Z,0.50
2023-02-13T07:03:11.632Z,0.80
2023-02-13T07:05:42.872Z,0.80
2023-02-13T07:08:14.649Z,0.90
2023-02-13T07:10:44.149Z,0.80
2023-02-13T07:13:13.233Z,0.90
2023-02-13T07:16:02.786Z,0.80
2023-02-13T07:18:31.036Z,0.90
2023-02-13T07:21:00.162Z,1.00
2023-02-13T07:23:29.448Z,1.00
2023-02-13T07:26:00.414Z,1.20
2023-02-13T07:28:30.774Z,1.30
2023-02-13T07:30:59.395Z,1.40
2023-02-13T07:33:27.730Z,1.40
2023-02-13T07:35:56.250Z,1.50
2023-02-13T07:38:24.352Z,1.60
2023-02-13T07:40:52.862Z,1.60
2023-02-13T07:43:40.715Z,1.70
2023-02-13T07:46:11.249Z,1.80
2023-02-13T07:48:40.306Z,1.80
2023-02-13T07:51:10.397Z,1.90
2023-02-13T07:53:38.585Z,1.90
2023-02-13T07:56:29.311Z,2.00
2023-02-13T07:58:58.778Z,2.20
2023-02-13T08:01:27.652Z,2.30
2023-02-13T08:03:57.302Z,2.50
2023-02-13T08:06:28.095Z,2.50
2023-02-13T08:09:10.230Z,2.70
2023-02-13T08:11:57.335Z,2.80
2023-02-13T08:14:29.207Z,2.80
2023-02-13T08:17:00.656Z,2.90
2023-02-13T08:19:29.684Z,3.00
2023-02-13T08:21:58.156Z,3.20
2023-02-13T08:24:27.241Z,3.30
2023-02-13T08:26:56.936Z,3.40
2023-02-13T08:29:27.943Z,3.50
2023-02-13T08:31:56.545Z,3.60
2023-02-13T08:34:26.524Z,3.70
2023-02-13T08:36:55.957Z,3.80
2023-02-13T08:39:24.902Z,3.90
2023-02-13T08:41:53.619Z,4.00
2023-02-13T08:44:21.791Z,4.10
2023-02-13T08:46:51.291Z,4.10
2023-02-13T08:49:20.260Z,4.30
2023-02-13T08:51:48.673Z,4.40
2023-02-13T08:54:18.075Z,4.50
2023-02-13T08:56:46.211Z,4.60
2023-02-13T08:59:15.169Z,4.70
2023-02-13T09:01:44.886Z,4.80
2023-02-13T09:04:15.899Z,4.90
2023-02-13T09:06:45.963Z,4.80
2023-02-13T09:09:14.291Z,4.90
2023-02-13T09:11:42.604Z,4.80
2023-02-13T09:14:11.780Z,4.90
2023-02-13T09:16:41.272Z,5.00
2023-02-13T09:19:10.128Z,5.10
2023-02-13T09:22:02.129Z,5.20
2023-02-13T09:24:33.041Z,5.30
2023-02-13T09:27:01.752Z,5.30
2023-02-13T09:29:31.778Z,5.30
2023-02-13T09:32:00.355Z,5.40
2023-02-13T09:34:28.785Z,5.40
2023-02-13T09:36:57.231Z,5.50
2023-02-13T09:39:29.800Z,5.60
2023-02-13T09:42:01.359Z,5.60
2023-02-13T09:44:39.143Z,5.70
2023-02-13T09:50:28.968Z,5.60
2023-02-13T09:53:00.302Z,5.60
2023-02-13T09:55:49.409Z,5.80
2023-02-13T09:58:36.403Z,5.90
2023-02-13T10:01:16.831Z,6.10
2023-02-13T10:03:57.045Z,6.20
2023-02-13T10:06:33.375Z,6.30
2023-02-13T10:09:14.235Z,6.40
2023-02-13T10:12:20.091Z,6.50
2023-02-13T10:15:06.733Z,6.60
2023-02-13T10:17:40.306Z,6.70
2023-02-13T10:20:32.669Z,6.80
2023-02-13T10:23:18.758Z,6.90
2023-02-13T10:25:56.214Z,6.90
2023-02-13T10:28:35.356Z,7.00
2023-02-13T10:31:10.435Z,7.20
2023-02-13T10:33:50.039Z,7.50
2023-02-13T10:36:22.679Z,7.80
2023-02-13T10:39:01.585Z,8.20
2023-02-13T10:41:52.912Z,8.60
2023-02-13T10:44:49.372Z,9.10
2023-02-13T10:47:41.416Z,9.60
2023-02-13T10:50:39.421Z,10.00
2023-02-13T10:53:20.846Z,10.10
2023-02-13T10:56:10.622Z,10.40
2023-02-13T10:58:55.722Z,10.70
2023-02-13T11:01:35.650Z,10.90
2023-02-13T11:04:09.430Z,11.30
2023-02-13T11:06:43.711Z,11.80
2023-02-13T11:09:13.679Z,12.20
2023-02-13T11:11:43.910Z,12.60
2023-02-13T11:14:16.787Z,13.00
2023-02-13T11:17:05.420Z,13.50
2023-02-13T11:19:38.445Z,13.80
2023-02-13T11:22:12.908Z,13.90
2023-02-13T11:24:51.455Z,14.30
2023-02-13T11:27:28.286Z,14.60
2023-02-13T11:29:59.891Z,15.10
2023-02-13T11:32:32.009Z,15.40
2023-02-13T11:35:30.378Z,15.80
2023-02-13T11:38:21.462Z,15.90
2023-02-13T11:40:54.204Z,16.50
2023-02-13T11:43:29.837Z,16.90
2023-02-13T11:46:08.296Z,17.20
2023-02-13T11:48:38.028Z,17.10
2023-02-13T11:51:06.787Z,17.30
2023-02-13T11:53:40.666Z,17.40
2023-02-13T11:56:14.258Z,17.80
2023-02-13T11:58:44.484Z,17.80
2023-02-13T12:01:28.367Z,17.90
2023-02-13T12:04:07.299Z,18.20
2023-02-13T12:06:40.498Z,18.60
2023-02-13T12:09:16.717Z,19.00
2023-02-13T12:11:51.053Z,19.00
2023-02-13T12:14:24.530Z,19.30
2023-02-13T12:16:58.728Z,19.70
2023-02-13T12:19:41.547Z,19.90
2023-02-13T12:22:33.796Z,20.30
2023-02-13T12:25:32.859Z,20.60
2023-02-13T12:28:16.387Z,20.70
2023-02-13T12:31:09.616Z,20.60
2023-02-13T12:34:22.460Z,20.60
2023-02-13T12:37:14.268Z,21.00
2023-02-13T12:39:54.069Z,21.90
2023-02-13T12:42:44.404Z,22.50
2023-02-13T12:45:31.878Z,22.70
2023-02-13T12:48:28.994Z,23.00
2023-02-13T12:51:19.068Z,23.10
2023-02-13T12:54:16.836Z,23.10
2023-02-13T12:57:18.240Z,22.70
2023-02-13T13:00:13.007Z,22.90
2023-02-13T13:03:03.849Z,23.60
2023-02-13T13:06:10.905Z,23.50
2023-02-13T13:09:09.466Z,23.40
2023-02-13T13:12:10.706Z,24.30
2023-02-13T13:14:51.263Z,23.70
2023-02-13T13:17:36.329Z,23.80
2023-02-13T13:20:32.830Z,24.20
2023-02-13T13:23:13.349Z,23.10
2023-02-13T13:25:54.806Z,20.70
2023-02-13T13:28:26.643Z,19.60
2023-02-13T13:30:57.670Z,20.30
2023-02-13T13:33:28.491Z,21.10
2023-02-13T13:36:05.320Z,21.70
2023-02-13T13:38:52.103Z,22.10
2023-02-13T13:41:36.101Z,22.60
2023-02-13T13:44:38.928Z,22.60
2023-02-13T13:47:24.390Z,23.10
2023-02-13T13:49:55.547Z,23.80
2023-02-13T13:52:28.000Z,24.00
2023-02-13T13:55:00.409Z,24.40
2023-02-13T13:58:01.093Z,24.00
2023-02-13T14:00:32.540Z,24.10
2023-02-13T14:03:36.784Z,24.90
2023-02-13T14:06:09.520Z,25.40
2023-02-13T14:09:39.547Z,26.10
2023-02-13T14:12:39.395Z,26.40
2023-02-13T14:15:55.032Z,26.00
2023-02-13T14:18:26.936Z,25.80
2023-02-13T14:20:58.925Z,25.60
2023-02-13T14:23:50.068Z,25.80
2023-02-13T14:26:32.642Z,25.80
2023-02-13T14:29:24.622Z,25.50
2023-02-13T14:32:08.148Z,25.40
2023-02-13T14:34:40.733Z,25.40
2023-02-13T14:37:27.201Z,25.70
2023-02-13T14:40:27.904Z,25.60
2023-02-13T14:43:01.156Z,25.70
2023-02-13T14:45:35.236Z,25.90
2023-02-13T14:48:14.596Z,25.80
2023-02-13T14:50:48.469Z,25.50
2023-02-13T14:53:24.624Z,25.10
2023-02-13T14:56:01.739Z,25.10
2023-02-13T14:58:32.500Z,24.30
2023-02-13T15:01:07.107Z,22.20
2023-02-13T15:03:48.550Z,20.30
2023-02-13T15:06:27.412Z,18.50
2023-02-13T15:08:58.354Z,17.20
2023-02-13T15:11:39.215Z,16.30
2023-02-13T15:14:26.860Z,15.60
2023-02-13T15:17:05.750Z,15.10
2023-02-13T15:19:39.094Z,14.60
2023-02-13T15:22:08.664Z,14.20
2023-02-13T15:24:48.088Z,13.70
2023-02-13T15:27:23.210Z,13.60
2023-02-13T15:30:04.556Z,13.30
2023-02-13T15:32:37.631Z,13.00
2023-02-13T15:35:24.351Z,12.90
2023-02-13T15:37:52.500Z,12.60
2023-02-13T15:40:28.896Z,12.40
2023-02-13T15:42:58.923Z,12.20
2023-02-13T15:45:30.936Z,12.10
2023-02-13T15:48:00.530Z,12.00
2023-02-13T15:50:34.186Z,11.90
2023-02-13T15:53:06.740Z,11.80
2023-02-13T15:55:38.731Z,11.60
2023-02-13T15:58:07.722Z,11.50
2023-02-13T16:00:40.540Z,11.30
2023-02-13T16:03:18.461Z,11.20
2023-02-13T16:05:48.913Z,11.10
2023-02-13T16:08:38.130Z,11.00
2023-02-13T16:11:31.720Z,11.00
2023-02-13T16:14:20.914Z,10.80
2023-02-13T16:16:55.454Z,10.70
2023-02-13T16:19:31.931Z,10.60
2023-02-13T16:22:08.022Z,10.50
2023-02-13T16:24:38.243Z,10.40
2023-02-13T16:27:15.522Z,10.20
2023-02-13T16:29:59.567Z,10.10
2023-02-13T16:32:31.911Z,9.80
2023-02-13T16:35:28.942Z,9.50
2023-02-13T16:38:01.810Z,9.30
2023-02-13T16:40:40.728Z,9.10
2023-02-13T16:43:44.234Z,8.80
2023-02-13T16:46:32.274Z,8.60
2023-02-13T16:49:30.208Z,8.50
2023-02-13T16:52:13.167Z,8.40
2023-02-13T16:54:54.367Z,8.20
2023-02-13T16:57:30.121Z,8.10
2023-02-13T17:00:19.692Z,8.00
2023-02-13T17:02:49.265Z,7.70
2023-02-13T17:05:24.172Z,7.60
2023-02-13T17:07:57.547Z,7.40
2023-02-13T17:10:28.916Z,7.20
2023-02-13T17:13:01.548Z,7.00
2023-02-13T17:15:32.702Z,6.90
2023-02-13T17:18:01.214Z,6.80
2023-02-13T17:20:32.897Z,6.70
2023-02-13T17:23:08.042Z,6.60
2023-02-13T17:25:38.825Z,6.40
2023-02-13T17:28:15.712Z,6.30
2023-02-13T17:30:44.822Z,6.20
2023-02-13T17:33:17.636Z,6.10
2023-02-13T17:35:46.347Z,6.10
2023-02-13T17:38:16.048Z,6.00
2023-02-13T17:40:47.243Z,5.80
2023-02-13T17:43:20.754Z,5.70
2023-02-13T17:45:50.759Z,5.60
2023-02-13T17:48:19.348Z,5.60
2023-02-13T17:50:50.215Z,5.50
2023-02-13T17:53:24.920Z,5.40
2023-02-13T17:55:53.605Z,5.40
2023-02-13T17:58:21.837Z,5.30
2023-02-13T18:00:49.963Z,5.20
2023-02-13T18:03:18.680Z,5.20
2023-02-13T18:05:49.526Z,5.10
2023-02-13T18:08:21.874Z,5.10
2023-02-13T18:10:52.047Z,5.00
2023-02-13T18:13:20.816Z,5.00
2023-02-13T18:15:50.195Z,5.00
2023-02-13T18:18:22.702Z,4.90
2023-02-13T18:20:56.575Z,4.90
2023-02-13T18:23:26.285Z,4.80
2023-02-13T18:25:54.775Z,4.80
2023-02-13T18:28:23.130Z,4.80
2023-02-13T18:30:51.842Z,4.70
2023-02-13T18:33:20.461Z,4.70
2023-02-13T18:35:49.123Z,4.70
2023-02-13T18:38:17.424Z,4.60
2023-02-13T18:40:47.102Z,4.60
2023-02-13T18:43:16.051Z,4.50
2023-02-13T18:45:45.799Z,4.40
2023-02-13T18:48:14.896Z,4.40
2023-02-13T18:50:44.288Z,4.30
2023-02-13T18:53:13.000Z,4.20
2023-02-13T18:55:41.208Z,4.20
2023-02-13T18:58:10.830Z,4.10
2023-02-13T19:00:39.216Z,4.10
2023-02-13T19:03:07.480Z,4.10
2023-02-13T19:05:35.584Z,4.00
2023-02-13T19:08:05.660Z,4.00
2023-02-13T19:10:33.882Z,3.90
2023-02-13T19:13:01.928Z,3.90
2023-02-13T19:15:31.651Z,3.80
2023-02-13T19:18:01.217Z,3.70
2023-02-13T19:20:29.617Z,3.70
2023-02-13T19:22:57.710Z,3.60
2023-02-13T19:25:27.844Z,3.60
2023-02-13T19:27:56.178Z,3.60
2023-02-13T19:30:24.688Z,3.50
2023-02-13T19:32:55.464Z,3.50
2023-02-13T19:35:23.996Z,3.40
2023-02-13T19:37:52.022Z,3.40
2023-02-13T19:40:20.682Z,3.40
2023-02-13T19:42:49.064Z,3.40
2023-02-13T19:45:17.777Z,3.40
2023-02-13T19:47:45.872Z,3.40
2023-02-13T19:50:16.654Z,3.40
2023-02-13T19:52:44.754Z,3.30
2023-02-13T19:55:12.873Z,3.30
2023-02-13T19:57:41.028Z,3.20
2023-02-13T20:00:10.661Z,3.20
2023-02-13T20:02:41.420Z,3.10
2023-02-13T20:05:10.205Z,3.00
2023-02-13T20:07:39.678Z,3.00
2023-02-13T20:10:11.012Z,2.90
2023-02-13T20:12:39.563Z,2.90
2023-02-13T20:15:09.228Z,2.80
2023-02-13T20:17:39.046Z,2.80
2023-02-13T20:20:09.292Z,2.80
2023-02-13T20:22:38.725Z,2.80
2023-02-13T20:25:07.644Z,2.70
2023-02-13T20:27:42.320Z,2.70
2023-02-13T20:30:15.598Z,2.70
2023-02-13T20:32:44.264Z,2.70
2023-02-13T20:35:12.513Z,2.60
2023-02-13T20:37:42.728Z,2.60
2023-02-13T20:40:13.117Z,2.60
2023-02-13T20:42:43.833Z,2.60
2023-02-13T20:45:12.043Z,2.60
2023-02-13T20:47:42.792Z,2.60
2023-02-13T20:50:11.789Z,2.60
2023-02-13T20:52:41.693Z,2.60
2023-02-13T20:55:10.274Z,2.60
2023-02-13T20:57:38.683Z,2.60
2023-02-13T21:00:12.391Z,2.60
2023-02-13T21:02:40.806Z,2.50
2023-02-13T21:05:09.434Z,2.50
2023-02-13T21:07:37.654Z,2.50
2023-02-13T21:10:08.600Z,2.40
2023-02-13T21:12:37.106Z,2.40
2023-02-13T21:15:05.872Z,2.30
2023-02-13T21:17:34.085Z,2.30
2023-02-13T21:20:02.209Z,2.30
2023-02-13T21:22:31.453Z,2.30
2023-02-13T21:24:59.589Z,2.20
2023-02-13T21:27:30.157Z,2.20
2023-02-13T21:29:58.553Z,2.20
2023-02-13T21:32:26.749Z,2.30
2023-02-13T21:34:56.622Z,2.20
2023-02-13T21:37:25.192Z,2.20
2023-02-13T21:39:53.306Z,2.20
2023-02-13T21:42:21.782Z,2.20
2023-02-13T21:44:51.517Z,2.10
2023-02-13T21:47:19.865Z,2.10
2023-02-13T21:49:49.160Z,2.10
2023-02-13T21:52:18.325Z,2.00
2023-02-13T21:54:47.076Z,2.00
2023-02-13T21:57:15.155Z,1.90
2023-02-13T21:59:43.229Z,1.90
2023-02-13T22:02:13.003Z,1.90
2023-02-13T22:04:42.654Z,1.90
2023-02-13T22:07:10.747Z,1.90
2023-02-13T22:09:39.778Z,1.90
2023-02-13T22:12:08.274Z,1.90
2023-02-13T22:14:36.888Z,1.90
2023-02-13T22:17:05.092Z,1.90
2023-02-13T22:19:35.176Z,1.90
2023-02-13T22:22:03.484Z,1.90
2023-02-13T22:24:32.906Z,1.80
2023-02-13T22:27:01.192Z,1.90
2023-02-13T22:29:29.627Z,1.80
2023-02-13T22:31:57.877Z,1.70
2023-02-13T22:34:26.011Z,1.60
2023-02-13T22:36:55.661Z,1.60
2023-02-13T22:39:23.901Z,1.50
2023-02-13T22:41:52.129Z,1.50
2023-02-13T22:44:20.251Z,1.50
2023-02-13T22:46:48.735Z,1.60
2023-02-13T22:49:16.836Z,1.60
2023-02-13T22:51:45.160Z,1.60
2023-02-13T22:54:14.616Z,1.50
2023-02-13T22:56:42.857Z,1.40
2023-02-13T22:59:13.381Z,1.40
2023-02-13T23:01:41.438Z,1.40
2023-02-13T23:04:09.903Z,1.40
2023-02-13T23:06:38.187Z,1.40
2023-02-13T23:09:08.149Z,1.40
2023-02-13T23:11:54.839Z,1.40
2023-02-13T23:14:24.596Z,1.40
2023-02-13T23:17:10.612Z,1.40
2023-02-13T23:19:39.369Z,1.40
2023-02-13T23:22:07.660Z,1.30
2023-02-13T23:24:35.719Z,1.30
2023-02-13T23:27:05.699Z,1.30
2023-02-13T23:29:34.390Z,1.30
2023-02-13T23:32:02.664Z,1.30
2023-02-13T23:34:30.879Z,1.30
2023-02-13T23:36:59.400Z,1.30
2023-02-13T23:39:27.625Z,1.30
2023-02-13T23:41:55.691Z,1.20
2023-02-13T23:44:27.756Z,1.20
2023-02-13T23:46:56.795Z,1.20
2023-02-13T23:49:24.996Z,1.10
2023-02-13T23:51:53.378Z,1.10
2023-02-13T23:54:24.567Z,1.10
2023-02-13T23:56:55.331Z,1.10
2023-02-13T23:59:26.007Z,1.10
